sensor_id;sensor_type;location;lat;lon;timestamp;noise_LAeq;noise_LA_min;noise_LA_max;noise_LA01;noise_LA95
66459;Laerm;70605;52.550;4.730;2023-06-19T00:00:07;43.60;42.54;47.21;;
66459;Laerm;70605;52.550;4.730;2023-06-19T00:00:22;43.58;42.52;46.34;;
66459;Laerm;70605;52.550;4.730;2023-06-19T00:00:33;43.66;42.67;47.71;;
66459;Laerm;70605;52.550;4.730;2023-06-19T00:00:43;43.68;42.75;45.14;;
66459;Laerm;70605;52.550;4.730;2023-06-19T00:00:53;43.55;42.64;44.66;;
66459;Laerm;70605;52.550;4.730;2023-06-19T00:01:03;43.63;42.67;44.69;;
66459;Laerm;70605;52.550;4.730;2023-06-19T00:01:14;43.55;42.48;46.11;;
66459;Laerm;70605;52.550;4.730;2023-06-19T00:01:24;43.66;42.68;45.72;;
66459;Laerm;70605;52.550;4.730;2023-06-19T00:01:34;44.39;42.46;61.25;;
66459;Laerm;70605;52.550;4.730;2023-06-19T00:01:44;43.57;42.56;44.64;;
66459;Laerm;70605;52.550;4.730;2023-06-19T00:01:55;43.41;42.33;44.57;;
66459;Laerm;70605;52.550;4.730;2023-06-19T00:02:05;43.58;42.68;44.64;;
66459;Laerm;70605;52.550;4.730;2023-06-19T00:02:16;43.50;42.59;45.35;;
66459;Laerm;70605;52.550;4.730;2023-06-19T00:02:26;43.61;42.62;45.07;;
66459;Laerm;70605;52.550;4.730;2023-06-19T00:02:36;43.68;42.49;45.30;;
66459;Laerm;70605;52.550;4.730;2023-06-19T00:02:46;43.95;42.87;47.18;;
66459;Laerm;70605;52.550;4.730;2023-06-19T00:02:57;43.70;42.58;45.11;;
66459;Laerm;70605;52.550;4.730;2023-06-19T00:03:07;43.68;42.74;45.22;;
66459;Laerm;70605;52.550;4.730;2023-06-19T00:03:17;43.66;42.75;45.59;;
66459;Laerm;70605;52.550;4.730;2023-06-19T00:03:28;43.78;42.89;46.12;;
66459;Laerm;70605;52.550;4.730;2023-06-19T00:03:38;43.91;42.72;52.69;;
66459;Laerm;70605;52.550;4.730;2023-06-19T00:03:48;43.68;42.64;45.34;;
66459;Laerm;70605;52.550;4.730;2023-06-19T00:03:59;43.69;42.45;45.38;;
66459;Laerm;70605;52.550;4.730;2023-06-19T00:04:09;43.71;42.53;47.41;;
66459;Laerm;70605;52.550;4.730;2023-06-19T00:04:20;43.64;42.71;45.67;;
66459;Laerm;70605;52.550;4.730;2023-06-19T00:04:30;43.64;42.42;45.01;;
66459;Laerm;70605;52.550;4.730;2023-06-19T00:04:40;43.59;42.61;44.43;;
66459;Laerm;70605;52.550;4.730;2023-06-19T00:04:50;43.65;42.57;45.14;;
66459;Laerm;70605;52.550;4.730;2023-06-19T00:05:01;43.56;42.65;45.01;;
66459;Laerm;70605;52.550;4.730;2023-06-19T00:05:12;43.59;42.33;45.69;;
66459;Laerm;70605;52.550;4.730;2023-06-19T00:05:22;43.61;42.62;44.54;;
66459;Laerm;70605;52.550;4.730;2023-06-19T00:05:33;43.60;42.59;44.50;;
66459;Laerm;70605;52.550;4.730;2023-06-19T00:05:43;43.47;42.63;44.53;;
66459;Laerm;70605;52.550;4.730;2023-06-19T00:05:54;43.69;42.53;52.06;;
66459;Laerm;70605;52.550;4.730;2023-06-19T00:06:05;43.64;42.80;45.15;;
66459;Laerm;70605;52.550;4.730;2023-06-19T00:06:15;43.57;42.70;44.98;;
66459;Laerm;70605;52.550;4.730;2023-06-19T00:06:25;43.55;42.57;44.93;;
66459;Laerm;70605;52.550;4.730;2023-06-19T00:06:36;43.53;42.47;45.13;;
66459;Laerm;70605;52.550;4.730;2023-06-19T00:06:46;43.72;42.26;47.28;;
66459;Laerm;70605;52.550;4.730;2023-06-19T00:06:56;43.52;42.50;44.43;;
66459;Laerm;70605;52.550;4.730;2023-06-19T00:07:06;43.54;42.53;44.69;;
66459;Laerm;70605;52.550;4.730;2023-06-19T00:07:17;43.47;42.53;44.49;;
66459;Laerm;70605;52.550;4.730;2023-06-19T00:07:27;43.50;42.34;44.61;;
66459;Laerm;70605;52.550;4.730;2023-06-19T00:07:37;43.37;42.45;44.35;;
66459;Laerm;70605;52.550;4.730;2023-06-19T00:07:47;43.46;42.35;45.26;;
66459;Laerm;70605;52.550;4.730;2023-06-19T00:07:58;43.77;42.42;54.70;;
66459;Laerm;70605;52.550;4.730;2023-06-19T00:08:08;43.51;42.53;45.69;;
66459;Laerm;70605;52.550;4.730;2023-06-19T00:08:18;43.49;42.17;44.62;;
66459;Laerm;70605;52.550;4.730;2023-06-19T00:08:28;43.64;42.69;45.73;;
66459;Laerm;70605;52.550;4.730;2023-06-19T00:08:39;43.81;42.72;46.52;;
66459;Laerm;70605;52.550;4.730;2023-06-19T00:08:51;43.77;42.30;46.86;;
66459;Laerm;70605;52.550;4.730;2023-06-19T00:09:01;43.55;42.62;45.32;;
66459;Laerm;70605;52.550;4.730;2023-06-19T00:09:12;43.58;42.33;45.82;;
66459;Laerm;70605;52.550;4.730;2023-06-19T00:09:23;43.61;42.72;45.35;;
66459;Laerm;70605;52.550;4.730;2023-06-19T00:09:33;43.56;42.63;45.77;;
66459;Laerm;70605;52.550;4.730;2023-06-19T00:09:43;43.53;42.53;45.92;;
66459;Laerm;70605;52.550;4.730;2023-06-19T00:09:54;43.51;42.29;44.43;;
66459;Laerm;70605;52.550;4.730;2023-06-19T00:10:04;43.89;42.56;57.01;;
66459;Laerm;70605;52.550;4.730;2023-06-19T00:10:15;43.67;42.38;45.02;;
66459;Laerm;70605;52.550;4.730;2023-06-19T00:10:25;43.53;42.60;44.35;;
66459;Laerm;70605;52.550;4.730;2023-06-19T00:10:36;43.58;42.64;46.03;;
66459;Laerm;70605;52.550;4.730;2023-06-19T00:10:47;43.58;42.30;44.94;;
66459;Laerm;70605;52.550;4.730;2023-06-19T00:10:57;43.63;42.70;44.74;;
66459;Laerm;70605;52.550;4.730;2023-06-19T00:11:08;43.67;42.33;47.36;;
66459;Laerm;70605;52.550;4.730;2023-06-19T00:11:18;43.54;42.30;44.51;;
66459;Laerm;70605;52.550;4.730;2023-06-19T00:11:28;43.59;42.62;44.53;;
66459;Laerm;70605;52.550;4.730;2023-06-19T00:11:38;43.63;42.37;44.75;;
66459;Laerm;70605;52.550;4.730;2023-06-19T00:11:49;43.59;42.44;44.67;;
66459;Laerm;70605;52.550;4.730;2023-06-19T00:11:59;43.53;42.57;44.83;;
66459;Laerm;70605;52.550;4.730;2023-06-19T00:12:09;43.66;42.61;45.00;;
66459;Laerm;70605;52.550;4.730;2023-06-19T00:12:21;44.18;42.38;57.30;;
66459;Laerm;70605;52.550;4.730;2023-06-19T00:12:32;43.53;42.62;44.73;;
66459;Laerm;70605;52.550;4.730;2023-06-19T00:12:42;43.42;42.59;45.43;;
66459;Laerm;70605;52.550;4.730;2023-06-19T00:12:52;43.39;42.57;44.29;;
66459;Laerm;70605;52.550;4.730;2023-06-19T00:13:02;43.51;42.62;44.95;;
66459;Laerm;70605;52.550;4.730;2023-06-19T00:13:13;43.53;42.41;46.42;;
66459;Laerm;70605;52.550;4.730;2023-06-19T00:13:23;43.52;42.67;44.49;;
66459;Laerm;70605;52.550;4.730;2023-06-19T00:13:33;43.44;42.48;44.61;;
66459;Laerm;70605;52.550;4.730;2023-06-19T00:13:44;43.47;42.62;44.53;;
66459;Laerm;70605;52.550;4.730;2023-06-19T00:13:54;43.50;42.58;44.50;;
66459;Laerm;70605;52.550;4.730;2023-06-19T00:14:05;43.57;42.57;44.67;;
66459;Laerm;70605;52.550;4.730;2023-06-19T00:14:15;43.49;42.45;44.53;;
66459;Laerm;70605;52.550;4.730;2023-06-19T00:14:25;43.67;42.64;49.73;;
66459;Laerm;70605;52.550;4.730;2023-06-19T00:14:36;43.54;42.58;44.45;;
66459;Laerm;70605;52.550;4.730;2023-06-19T00:14:46;43.53;42.62;45.19;;
66459;Laerm;70605;52.550;4.730;2023-06-19T00:14:57;43.60;42.56;45.46;;
66459;Laerm;70605;52.550;4.730;2023-06-19T00:15:07;43.52;42.59;44.63;;
66459;Laerm;70605;52.550;4.730;2023-06-19T00:15:19;43.52;42.63;45.40;;
66459;Laerm;70605;52.550;4.730;2023-06-19T00:15:29;43.43;42.65;44.69;;
66459;Laerm;70605;52.550;4.730;2023-06-19T00:15:40;43.50;42.53;44.74;;
66459;Laerm;70605;52.550;4.730;2023-06-19T00:15:50;43.55;42.32;44.97;;
66459;Laerm;70605;52.550;4.730;2023-06-19T00:16:00;43.62;42.50;45.86;;
66459;Laerm;70605;52.550;4.730;2023-06-19T00:16:11;43.56;42.61;44.58;;
66459;Laerm;70605;52.550;4.730;2023-06-19T00:16:21;43.46;42.56;45.25;;
66459;Laerm;70605;52.550;4.730;2023-06-19T00:16:32;43.60;42.59;47.86;;
66459;Laerm;70605;52.550;4.730;2023-06-19T00:16:42;43.53;42.54;47.11;;
66459;Laerm;70605;52.550;4.730;2023-06-19T00:16:52;43.45;42.57;45.37;;
66459;Laerm;70605;52.550;4.730;2023-06-19T00:17:02;43.35;42.40;44.16;;
66459;Laerm;70605;52.550;4.730;2023-06-19T00:17:13;43.36;42.28;45.63;;
66459;Laerm;70605;52.550;4.730;2023-06-19T00:17:27;43.32;42.52;44.56;;
66459;Laerm;70605;52.550;4.730;2023-06-19T00:17:37;43.48;42.43;47.25;;
66459;Laerm;70605;52.550;4.730;2023-06-19T00:17:47;43.39;42.39;45.30;;
66459;Laerm;70605;52.550;4.730;2023-06-19T00:17:58;43.44;42.56;44.49;;
66459;Laerm;70605;52.550;4.730;2023-06-19T00:18:09;43.42;42.10;45.14;;
66459;Laerm;70605;52.550;4.730;2023-06-19T00:18:20;43.41;42.35;44.68;;
66459;Laerm;70605;52.550;4.730;2023-06-19T00:18:31;43.39;42.44;45.18;;
66459;Laerm;70605;52.550;4.730;2023-06-19T00:18:49;43.49;42.38;52.13;;
66459;Laerm;70605;52.550;4.730;2023-06-19T00:19:00;43.41;42.37;44.47;;
66459;Laerm;70605;52.550;4.730;2023-06-19T00:19:12;43.43;42.33;44.28;;
66459;Laerm;70605;52.550;4.730;2023-06-19T00:19:22;43.45;42.37;44.39;;
66459;Laerm;70605;52.550;4.730;2023-06-19T00:19:33;43.45;42.54;44.43;;
66459;Laerm;70605;52.550;4.730;2023-06-19T00:19:46;43.39;42.49;44.42;;
66459;Laerm;70605;52.550;4.730;2023-06-19T00:19:58;43.50;42.64;44.57;;
66459;Laerm;70605;52.550;4.730;2023-06-19T00:20:09;43.41;42.22;44.94;;
66459;Laerm;70605;52.550;4.730;2023-06-19T00:20:19;43.32;42.50;44.21;;
66459;Laerm;70605;52.550;4.730;2023-06-19T00:20:29;43.42;42.57;44.95;;
66459;Laerm;70605;52.550;4.730;2023-06-19T00:20:40;43.41;42.55;44.27;;
66459;Laerm;70605;52.550;4.730;2023-06-19T00:20:50;43.89;42.45;58.13;;
66459;Laerm;70605;52.550;4.730;2023-06-19T00:21:00;43.52;42.60;44.35;;
66459;Laerm;70605;52.550;4.730;2023-06-19T00:21:11;43.49;42.52;44.66;;
66459;Laerm;70605;52.550;4.730;2023-06-19T00:21:22;43.46;42.54;44.49;;
66459;Laerm;70605;52.550;4.730;2023-06-19T00:21:34;43.63;42.47;45.01;;
66459;Laerm;70605;52.550;4.730;2023-06-19T00:21:44;43.51;42.44;44.63;;
66459;Laerm;70605;52.550;4.730;2023-06-19T00:21:55;43.60;42.52;45.18;;
66459;Laerm;70605;52.550;4.730;2023-06-19T00:22:07;43.50;42.46;44.54;;
66459;Laerm;70605;52.550;4.730;2023-06-19T00:22:17;43.51;42.54;44.52;;
66459;Laerm;70605;52.550;4.730;2023-06-19T00:22:27;43.45;42.59;44.69;;
66459;Laerm;70605;52.550;4.730;2023-06-19T00:22:38;43.47;42.27;44.40;;
66459;Laerm;70605;52.550;4.730;2023-06-19T00:22:48;43.47;42.54;44.80;;
66459;Laerm;70605;52.550;4.730;2023-06-19T00:23:01;43.62;42.44;51.82;;
66459;Laerm;70605;52.550;4.730;2023-06-19T00:23:12;43.59;42.55;44.70;;
66459;Laerm;70605;52.550;4.730;2023-06-19T00:23:24;43.62;42.69;45.13;;
66459;Laerm;70605;52.550;4.730;2023-06-19T00:23:34;43.57;42.53;45.38;;
66459;Laerm;70605;52.550;4.730;2023-06-19T00:23:45;43.43;42.42;44.77;;
66459;Laerm;70605;52.550;4.730;2023-06-19T00:23:55;43.54;42.37;44.70;;
66459;Laerm;70605;52.550;4.730;2023-06-19T00:24:05;43.76;42.64;46.30;;
66459;Laerm;70605;52.550;4.730;2023-06-19T00:24:16;43.72;42.72;45.48;;
66459;Laerm;70605;52.550;4.730;2023-06-19T00:24:26;43.59;42.71;44.91;;
66459;Laerm;70605;52.550;4.730;2023-06-19T00:24:36;43.59;42.27;44.67;;
66459;Laerm;70605;52.550;4.730;2023-06-19T00:24:47;43.73;42.62;45.36;;
66459;Laerm;70605;52.550;4.730;2023-06-19T00:24:58;43.75;42.56;45.58;;
66459;Laerm;70605;52.550;4.730;2023-06-19T00:25:08;43.80;42.88;52.72;;
66459;Laerm;70605;52.550;4.730;2023-06-19T00:25:18;43.57;42.48;44.69;;
66459;Laerm;70605;52.550;4.730;2023-06-19T00:25:29;43.57;42.35;45.76;;
66459;Laerm;70605;52.550;4.730;2023-06-19T00:25:42;43.58;42.44;45.11;;
66459;Laerm;70605;52.550;4.730;2023-06-19T00:25:53;43.45;42.64;44.71;;
66459;Laerm;70605;52.550;4.730;2023-06-19T00:26:03;43.47;42.57;44.45;;
66459;Laerm;70605;52.550;4.730;2023-06-19T00:26:14;43.56;42.20;44.84;;
66459;Laerm;70605;52.550;4.730;2023-06-19T00:26:24;43.46;42.54;46.30;;
66459;Laerm;70605;52.550;4.730;2023-06-19T00:26:35;43.65;42.22;47.01;;
66459;Laerm;70605;52.550;4.730;2023-06-19T00:26:45;43.33;42.38;44.09;;
66459;Laerm;70605;52.550;4.730;2023-06-19T00:26:56;43.41;42.51;44.42;;
66459;Laerm;70605;52.550;4.730;2023-06-19T00:27:06;43.41;42.37;44.33;;
66459;Laerm;70605;52.550;4.730;2023-06-19T00:27:16;43.82;42.41;55.67;;
66459;Laerm;70605;52.550;4.730;2023-06-19T00:27:27;43.47;42.57;44.69;;
66459;Laerm;70605;52.550;4.730;2023-06-19T00:27:37;43.40;42.57;44.42;;
66459;Laerm;70605;52.550;4.730;2023-06-19T00:27:47;43.41;42.39;44.32;;
66459;Laerm;70605;52.550;4.730;2023-06-19T00:27:58;43.50;42.65;44.57;;
66459;Laerm;70605;52.550;4.730;2023-06-19T00:28:08;43.42;42.16;44.59;;
66459;Laerm;70605;52.550;4.730;2023-06-19T00:28:21;43.47;42.52;44.95;;
66459;Laerm;70605;52.550;4.730;2023-06-19T00:28:31;43.52;42.41;44.83;;
66459;Laerm;70605;52.550;4.730;2023-06-19T00:28:42;43.74;42.58;45.43;;
66459;Laerm;70605;52.550;4.730;2023-06-19T00:28:54;43.50;42.56;44.90;;
66459;Laerm;70605;52.550;4.730;2023-06-19T00:29:04;43.70;42.74;44.94;;
66459;Laerm;70605;52.550;4.730;2023-06-19T00:29:15;43.56;42.62;45.65;;
66459;Laerm;70605;52.550;4.730;2023-06-19T00:29:25;43.62;42.41;53.01;;
66459;Laerm;70605;52.550;4.730;2023-06-19T00:29:38;43.61;42.67;45.01;;
66459;Laerm;70605;52.550;4.730;2023-06-19T00:29:48;43.46;42.53;44.50;;
66459;Laerm;70605;52.550;4.730;2023-06-19T00:29:58;43.67;42.75;45.28;;
66459;Laerm;70605;52.550;4.730;2023-06-19T00:30:12;43.93;42.53;46.14;;
66459;Laerm;70605;52.550;4.730;2023-06-19T00:30:22;43.55;42.53;44.56;;
66459;Laerm;70605;52.550;4.730;2023-06-19T00:30:33;43.37;42.41;44.49;;
66459;Laerm;70605;52.550;4.730;2023-06-19T00:30:43;43.50;42.46;44.36;;
66459;Laerm;70605;52.550;4.730;2023-06-19T00:30:54;43.56;42.62;46.95;;
66459;Laerm;70605;52.550;4.730;2023-06-19T00:31:05;43.81;42.43;49.82;;
66459;Laerm;70605;52.550;4.730;2023-06-19T00:31:17;43.92;42.66;51.73;;
66459;Laerm;70605;52.550;4.730;2023-06-19T00:31:29;44.20;42.69;50.54;;
66459;Laerm;70605;52.550;4.730;2023-06-19T00:31:39;43.80;42.42;51.64;;
66459;Laerm;70605;52.550;4.730;2023-06-19T00:31:49;43.47;42.42;44.32;;
66459;Laerm;70605;52.550;4.730;2023-06-19T00:32:00;43.58;42.71;44.51;;
66459;Laerm;70605;52.550;4.730;2023-06-19T00:32:10;43.48;42.72;44.41;;
66459;Laerm;70605;52.550;4.730;2023-06-19T00:32:21;43.59;42.41;45.03;;
66459;Laerm;70605;52.550;4.730;2023-06-19T00:32:31;43.39;42.49;44.49;;
66459;Laerm;70605;52.550;4.730;2023-06-19T00:32:41;43.47;42.49;44.58;;
66459;Laerm;70605;52.550;4.730;2023-06-19T00:32:59;43.87;42.55;48.28;;
66459;Laerm;70605;52.550;4.730;2023-06-19T00:33:13;43.87;42.58;48.55;;
66459;Laerm;70605;52.550;4.730;2023-06-19T00:33:23;43.69;42.57;50.96;;
66459;Laerm;70605;52.550;4.730;2023-06-19T00:33:33;43.57;42.54;44.90;;
66459;Laerm;70605;52.550;4.730;2023-06-19T00:33:44;44.03;42.73;48.80;;
66459;Laerm;70605;52.550;4.730;2023-06-19T00:33:55;43.89;42.67;46.99;;
66459;Laerm;70605;52.550;4.730;2023-06-19T00:34:05;43.84;42.30;46.66;;
66459;Laerm;70605;52.550;4.730;2023-06-19T00:34:16;43.57;42.66;45.18;;
66459;Laerm;70605;52.550;4.730;2023-06-19T00:34:28;43.72;42.52;46.46;;
66459;Laerm;70605;52.550;4.730;2023-06-19T00:34:38;43.75;42.36;49.82;;
66459;Laerm;70605;52.550;4.730;2023-06-19T00:34:48;43.53;42.60;45.91;;
66459;Laerm;70605;52.550;4.730;2023-06-19T00:34:59;43.48;42.32;44.58;;
66459;Laerm;70605;52.550;4.730;2023-06-19T00:35:10;43.55;42.49;44.91;;
66459;Laerm;70605;52.550;4.730;2023-06-19T00:35:21;43.42;42.34;45.51;;
66459;Laerm;70605;52.550;4.730;2023-06-19T00:35:32;43.48;42.37;44.92;;
66459;Laerm;70605;52.550;4.730;2023-06-19T00:35:42;43.51;42.48;46.48;;
66459;Laerm;70605;52.550;4.730;2023-06-19T00:35:53;43.48;42.44;44.75;;
66459;Laerm;70605;52.550;4.730;2023-06-19T00:36:08;44.76;42.59;56.94;;
66459;Laerm;70605;52.550;4.730;2023-06-19T00:36:18;43.65;42.46;47.42;;
66459;Laerm;70605;52.550;4.730;2023-06-19T00:36:33;43.43;42.24;47.02;;
66459;Laerm;70605;52.550;4.730;2023-06-19T00:36:53;43.42;42.48;44.30;;
66459;Laerm;70605;52.550;4.730;2023-06-19T00:37:06;43.54;42.48;44.76;;
66459;Laerm;70605;52.550;4.730;2023-06-19T00:37:16;43.53;42.50;44.97;;
66459;Laerm;70605;52.550;4.730;2023-06-19T00:37:26;44.06;42.76;51.28;;
66459;Laerm;70605;52.550;4.730;2023-06-19T00:37:42;44.04;42.33;52.11;;
66459;Laerm;70605;52.550;4.730;2023-06-19T00:37:55;44.64;42.83;57.21;;
66459;Laerm;70605;52.550;4.730;2023-06-19T00:38:05;43.92;42.46;48.08;;
66459;Laerm;70605;52.550;4.730;2023-06-19T00:38:15;43.52;42.40;45.66;;
66459;Laerm;70605;52.550;4.730;2023-06-19T00:38:25;44.78;42.79;54.67;;
66459;Laerm;70605;52.550;4.730;2023-06-19T00:38:36;43.68;42.76;45.21;;
66459;Laerm;70605;52.550;4.730;2023-06-19T00:38:47;43.56;42.76;44.72;;
66459;Laerm;70605;52.550;4.730;2023-06-19T00:38:58;43.64;42.66;46.49;;
66459;Laerm;70605;52.550;4.730;2023-06-19T00:39:08;43.57;42.60;46.02;;
66459;Laerm;70605;52.550;4.730;2023-06-19T00:39:18;43.62;42.48;49.02;;
66459;Laerm;70605;52.550;4.730;2023-06-19T00:39:29;43.92;42.62;50.21;;
66459;Laerm;70605;52.550;4.730;2023-06-19T00:39:39;44.22;42.58;50.92;;
66459;Laerm;70605;52.550;4.730;2023-06-19T00:39:50;43.69;42.74;46.26;;
66459;Laerm;70605;52.550;4.730;2023-06-19T00:40:01;43.67;42.53;46.19;;
66459;Laerm;70605;52.550;4.730;2023-06-19T00:40:27;43.69;42.39;45.41;;
66459;Laerm;70605;52.550;4.730;2023-06-19T00:40:38;43.68;42.41;47.35;;
66459;Laerm;70605;52.550;4.730;2023-06-19T00:40:48;43.69;42.51;48.81;;
66459;Laerm;70605;52.550;4.730;2023-06-19T00:40:58;43.79;42.74;45.81;;
66459;Laerm;70605;52.550;4.730;2023-06-19T00:41:09;44.16;42.55;55.61;;
66459;Laerm;70605;52.550;4.730;2023-06-19T00:41:19;43.68;42.58;45.89;;
66459;Laerm;70605;52.550;4.730;2023-06-19T00:41:30;44.70;42.92;52.84;;
66459;Laerm;70605;52.550;4.730;2023-06-19T00:41:40;44.81;42.71;51.02;;
66459;Laerm;70605;52.550;4.730;2023-06-19T00:41:52;43.74;42.62;46.40;;
66459;Laerm;70605;52.550;4.730;2023-06-19T00:42:03;43.61;42.51;44.82;;
66459;Laerm;70605;52.550;4.730;2023-06-19T00:42:13;43.74;42.84;44.80;;
66459;Laerm;70605;52.550;4.730;2023-06-19T00:42:23;44.09;42.78;47.57;;
66459;Laerm;70605;52.550;4.730;2023-06-19T00:42:34;46.37;42.98;54.26;;
66459;Laerm;70605;52.550;4.730;2023-06-19T00:42:44;45.73;42.79;53.72;;
66459;Laerm;70605;52.550;4.730;2023-06-19T00:42:54;49.81;43.79;59.27;;
66459;Laerm;70605;52.550;4.730;2023-06-19T00:43:05;48.34;43.11;57.76;;
66459;Laerm;70605;52.550;4.730;2023-06-19T00:43:15;48.43;43.50;57.16;;
66459;Laerm;70605;52.550;4.730;2023-06-19T00:43:26;47.17;43.50;56.17;;
66459;Laerm;70605;52.550;4.730;2023-06-19T00:43:36;48.39;43.70;59.31;;
66459;Laerm;70605;52.550;4.730;2023-06-19T00:43:46;47.13;43.19;57.43;;
66459;Laerm;70605;52.550;4.730;2023-06-19T00:43:56;46.00;43.14;52.26;;
66459;Laerm;70605;52.550;4.730;2023-06-19T00:44:07;50.46;43.13;61.88;;
66459;Laerm;70605;52.550;4.730;2023-06-19T00:44:17;49.98;43.47;60.81;;
66459;Laerm;70605;52.550;4.730;2023-06-19T00:44:27;50.86;43.66;63.88;;
66459;Laerm;70605;52.550;4.730;2023-06-19T00:44:38;56.69;43.94;70.10;;
66459;Laerm;70605;52.550;4.730;2023-06-19T00:44:49;59.31;44.14;71.18;;
66459;Laerm;70605;52.550;4.730;2023-06-19T00:44:59;54.43;43.43;68.58;;
66459;Laerm;70605;52.550;4.730;2023-06-19T00:45:09;49.58;43.65;60.17;;
66459;Laerm;70605;52.550;4.730;2023-06-19T00:45:20;53.83;43.88;63.09;;
66459;Laerm;70605;52.550;4.730;2023-06-19T00:45:30;52.59;43.83;64.73;;
66459;Laerm;70605;52.550;4.730;2023-06-19T00:45:41;52.14;44.52;61.08;;
66459;Laerm;70605;52.550;4.730;2023-06-19T00:45:51;50.57;43.47;60.97;;
66459;Laerm;70605;52.550;4.730;2023-06-19T00:46:02;48.85;42.99;55.57;;
66459;Laerm;70605;52.550;4.730;2023-06-19T00:46:13;51.27;43.51;63.27;;
66459;Laerm;70605;52.550;4.730;2023-06-19T00:46:23;50.02;43.34;58.59;;
66459;Laerm;70605;52.550;4.730;2023-06-19T00:46:35;50.43;43.46;59.49;;
66459;Laerm;70605;52.550;4.730;2023-06-19T00:46:46;51.46;43.12;66.42;;
66459;Laerm;70605;52.550;4.730;2023-06-19T00:47:00;49.47;43.27;58.81;;
66459;Laerm;70605;52.550;4.730;2023-06-19T00:47:11;48.76;43.08;57.85;;
66459;Laerm;70605;52.550;4.730;2023-06-19T00:47:21;46.02;42.81;55.68;;
66459;Laerm;70605;52.550;4.730;2023-06-19T00:47:33;46.60;42.80;56.10;;
66459;Laerm;70605;52.550;4.730;2023-06-19T00:47:44;46.11;42.84;54.65;;
66459;Laerm;70605;52.550;4.730;2023-06-19T00:47:55;49.71;43.00;58.69;;
66459;Laerm;70605;52.550;4.730;2023-06-19T00:48:05;48.91;42.82;60.42;;
66459;Laerm;70605;52.550;4.730;2023-06-19T00:48:16;48.78;43.16;57.73;;
66459;Laerm;70605;52.550;4.730;2023-06-19T00:48:27;50.94;43.32;61.12;;
66459;Laerm;70605;52.550;4.730;2023-06-19T00:48:38;49.20;42.82;63.87;;
66459;Laerm;70605;52.550;4.730;2023-06-19T00:48:48;44.81;42.75;50.84;;
66459;Laerm;70605;52.550;4.730;2023-06-19T00:48:59;46.91;42.88;55.56;;
66459;Laerm;70605;52.550;4.730;2023-06-19T00:49:09;49.93;43.26;58.54;;
66459;Laerm;70605;52.550;4.730;2023-06-19T00:49:19;47.24;43.22;53.87;;
66459;Laerm;70605;52.550;4.730;2023-06-19T00:49:30;47.12;43.51;52.74;;
66459;Laerm;70605;52.550;4.730;2023-06-19T00:49:40;52.79;45.57;60.36;;
66459;Laerm;70605;52.550;4.730;2023-06-19T00:49:51;58.08;51.09;67.04;;
66459;Laerm;70605;52.550;4.730;2023-06-19T00:50:01;57.28;50.14;64.99;;
66459;Laerm;70605;52.550;4.730;2023-06-19T00:50:12;62.54;48.46;74.36;;
66459;Laerm;70605;52.550;4.730;2023-06-19T00:50:22;60.63;46.57;73.37;;
66459;Laerm;70605;52.550;4.730;2023-06-19T00:50:33;56.39;45.47;66.28;;
66459;Laerm;70605;52.550;4.730;2023-06-19T00:50:43;61.98;46.29;73.21;;
66459;Laerm;70605;52.550;4.730;2023-06-19T00:50:54;63.01;51.48;74.47;;
66459;Laerm;70605;52.550;4.730;2023-06-19T00:51:05;62.85;44.93;71.89;;
66459;Laerm;70605;52.550;4.730;2023-06-19T00:51:16;63.32;47.78;76.67;;
66459;Laerm;70605;52.550;4.730;2023-06-19T00:51:26;49.95;43.92;62.03;;
66459;Laerm;70605;52.550;4.730;2023-06-19T00:51:37;54.13;43.78;66.75;;
66459;Laerm;70605;52.550;4.730;2023-06-19T00:51:47;57.51;45.85;70.20;;
66459;Laerm;70605;52.550;4.730;2023-06-19T00:51:57;58.64;44.83;67.31;;
66459;Laerm;70605;52.550;4.730;2023-06-19T00:52:08;60.63;48.81;72.90;;
66459;Laerm;70605;52.550;4.730;2023-06-19T00:52:18;54.87;45.28;64.43;;
66459;Laerm;70605;52.550;4.730;2023-06-19T00:52:28;57.43;44.27;70.34;;
66459;Laerm;70605;52.550;4.730;2023-06-19T00:52:38;54.68;43.64;63.14;;
66459;Laerm;70605;52.550;4.730;2023-06-19T00:52:49;59.61;46.69;68.70;;
66459;Laerm;70605;52.550;4.730;2023-06-19T00:53:00;57.01;43.68;66.70;;
66459;Laerm;70605;52.550;4.730;2023-06-19T00:53:13;54.46;43.44;66.34;;
66459;Laerm;70605;52.550;4.730;2023-06-19T00:53:24;54.86;43.83;65.95;;
66459;Laerm;70605;52.550;4.730;2023-06-19T00:53:35;50.24;43.15;60.66;;
66459;Laerm;70605;52.550;4.730;2023-06-19T00:53:45;53.56;43.69;66.56;;
66459;Laerm;70605;52.550;4.730;2023-06-19T00:53:55;53.19;43.62;65.70;;
66459;Laerm;70605;52.550;4.730;2023-06-19T00:54:06;59.69;43.46;78.58;;
66459;Laerm;70605;52.550;4.730;2023-06-19T00:54:17;57.82;43.13;67.08;;
66459;Laerm;70605;52.550;4.730;2023-06-19T00:54:27;54.82;45.09;63.63;;
66459;Laerm;70605;52.550;4.730;2023-06-19T00:54:39;51.63;43.82;60.59;;
66459;Laerm;70605;52.550;4.730;2023-06-19T00:54:49;57.74;43.58;70.09;;
66459;Laerm;70605;52.550;4.730;2023-06-19T00:55:00;58.42;43.75;67.51;;
66459;Laerm;70605;52.550;4.730;2023-06-19T00:55:10;55.37;43.51;67.82;;
66459;Laerm;70605;52.550;4.730;2023-06-19T00:55:21;56.60;43.43;64.30;;
66459;Laerm;70605;52.550;4.730;2023-06-19T00:55:31;56.00;43.95;64.95;;
66459;Laerm;70605;52.550;4.730;2023-06-19T00:55:42;59.76;43.92;70.05;;
66459;Laerm;70605;52.550;4.730;2023-06-19T00:55:54;58.65;43.73;70.91;;
66459;Laerm;70605;52.550;4.730;2023-06-19T00:56:06;53.20;44.16;67.44;;
66459;Laerm;70605;52.550;4.730;2023-06-19T00:56:16;58.65;44.50;72.33;;
66459;Laerm;70605;52.550;4.730;2023-06-19T00:56:28;58.80;43.61;68.93;;
66459;Laerm;70605;52.550;4.730;2023-06-19T00:56:38;56.83;43.38;69.02;;
66459;Laerm;70605;52.550;4.730;2023-06-19T00:56:51;59.81;44.23;71.81;;
66459;Laerm;70605;52.550;4.730;2023-06-19T00:57:01;54.43;44.80;62.55;;
66459;Laerm;70605;52.550;4.730;2023-06-19T00:57:12;56.78;44.03;67.53;;
66459;Laerm;70605;52.550;4.730;2023-06-19T00:57:22;58.46;44.50;70.51;;
66459;Laerm;70605;52.550;4.730;2023-06-19T00:57:33;62.72;45.55;74.31;;
66459;Laerm;70605;52.550;4.730;2023-06-19T00:57:43;59.89;46.36;67.67;;
66459;Laerm;70605;52.550;4.730;2023-06-19T00:57:53;59.14;45.10;68.08;;
66459;Laerm;70605;52.550;4.730;2023-06-19T00:58:04;63.04;46.12;78.63;;
66459;Laerm;70605;52.550;4.730;2023-06-19T00:58:15;65.08;45.75;76.76;;
66459;Laerm;70605;52.550;4.730;2023-06-19T00:58:25;57.31;44.62;72.58;;
66459;Laerm;70605;52.550;4.730;2023-06-19T00:58:36;61.37;45.20;73.93;;
66459;Laerm;70605;52.550;4.730;2023-06-19T00:58:46;63.49;47.23;72.69;;
66459;Laerm;70605;52.550;4.730;2023-06-19T00:58:56;61.02;44.36;71.49;;
66459;Laerm;70605;52.550;4.730;2023-06-19T00:59:08;56.95;43.68;66.14;;
66459;Laerm;70605;52.550;4.730;2023-06-19T00:59:22;57.90;43.92;71.28;;
66459;Laerm;70605;52.550;4.730;2023-06-19T00:59:32;55.55;43.15;67.93;;
66459;Laerm;70605;52.550;4.730;2023-06-19T00:59:42;55.23;44.99;63.31;;
66459;Laerm;70605;52.550;4.730;2023-06-19T00:59:53;58.77;43.65;68.99;;
66459;Laerm;70605;52.550;4.730;2023-06-19T01:00:04;53.70;43.54;64.89;;
66459;Laerm;70605;52.550;4.730;2023-06-19T01:00:16;60.29;44.22;69.58;;
66459;Laerm;70605;52.550;4.730;2023-06-19T01:00:26;59.52;44.07;69.66;;
66459;Laerm;70605;52.550;4.730;2023-06-19T01:00:36;60.12;43.28;71.05;;